createdAt,value
2023-12-14T00:00:28.515Z,100732.84
2023-12-14T00:01:30.276Z,100737.19
2023-12-14T00:02:32.127Z,100735.44
2023-12-14T00:03:34.971Z,100731.13
2023-12-14T00:04:36.759Z,100740.66
2023-12-14T00:05:38.685Z,100736.31
2023-12-14T00:06:40.253Z,100740.63
2023-12-14T00:07:41.884Z,100744.09
2023-12-14T00:08:43.768Z,100744.09
2023-12-14T00:09:45.363Z,100752.72
2023-12-14T00:10:47.025Z,100743.22
2023-12-14T00:11:48.716Z,100749.28
2023-12-14T00:12:52.039Z,100755.31
2023-12-14T00:13:56.408Z,100745.78
2023-12-14T00:14:58.394Z,100759.66
2023-12-14T00:16:00.331Z,100756.16
2023-12-14T00:17:01.995Z,100757.91
2023-12-14T00:18:03.708Z,100763.09
2023-12-14T00:19:05.512Z,100762.25
2023-12-14T00:20:08.170Z,100769.19
2023-12-14T00:21:10.026Z,100767.44
2023-12-14T00:22:11.636Z,100767.44
2023-12-14T00:23:13.498Z,100773.50
2023-12-14T00:24:15.137Z,100769.19
2023-12-14T00:25:16.832Z,100767.44
2023-12-14T00:26:18.585Z,100764.84
2023-12-14T00:27:22.213Z,100783.00
2023-12-14T00:28:26.796Z,100769.19
2023-12-14T00:29:29.643Z,100770.03
2023-12-14T00:30:31.689Z,100775.22
2023-12-14T00:31:33.557Z,100776.97
2023-12-14T00:32:35.599Z,100779.56
2023-12-14T00:33:37.780Z,100776.94
2023-12-14T00:34:39.765Z,100780.41
2023-12-14T00:35:41.454Z,100785.59
2023-12-14T00:36:43.880Z,100789.06
2023-12-14T00:37:45.586Z,100787.34
2023-12-14T00:38:47.595Z,100783.00
2023-12-14T00:39:49.463Z,100796.84
2023-12-14T00:40:51.098Z,100793.38
2023-12-14T00:41:52.853Z,100794.25
2023-12-14T00:42:54.656Z,100800.31
2023-12-14T00:43:56.526Z,100800.28
2023-12-14T00:44:58.336Z,100796.81
2023-12-14T00:46:02.420Z,100797.72
2023-12-14T00:47:04.306Z,100800.31
2023-12-14T00:48:06.393Z,100800.31
2023-12-14T00:49:08.441Z,100808.09
2023-12-14T00:50:10.752Z,100802.91
2023-12-14T00:51:12.593Z,100815.00
2023-12-14T00:52:14.307Z,100821.94
2023-12-14T00:53:16.070Z,100821.94
2023-12-14T00:54:18.039Z,100822.78
2023-12-14T00:55:19.779Z,100814.13
2023-12-14T00:56:22.079Z,100810.69
2023-12-14T00:57:23.864Z,100821.06
2023-12-14T00:58:25.427Z,100811.53
2023-12-14T00:59:30.391Z,100821.06
2023-12-14T01:00:32.497Z,100831.44
2023-12-14T01:01:34.097Z,100827.09
2023-12-14T01:02:36.084Z,100830.56
2023-12-14T01:03:37.921Z,100821.94
2023-12-14T01:04:39.687Z,100829.72
2023-12-14T01:05:41.650Z,100832.31
2023-12-14T01:06:43.345Z,100832.31
2023-12-14T01:07:45.066Z,100838.34
2023-12-14T01:08:46.782Z,100837.50
2023-12-14T01:09:48.381Z,100834.06
2023-12-14T01:10:50.075Z,100834.03
2023-12-14T01:11:51.845Z,100829.72
2023-12-14T01:12:55.916Z,100836.66
2023-12-14T01:13:57.781Z,100846.13
2023-12-14T01:14:59.532Z,100843.53
2023-12-14T01:16:01.281Z,100845.28
2023-12-14T01:17:05.250Z,100838.34
2023-12-14T01:18:07.093Z,100847.00
2023-12-14T01:19:09.033Z,100840.94
2023-12-14T01:20:11.368Z,100845.28
2023-12-14T01:21:13.089Z,100846.13
2023-12-14T01:22:16.308Z,100847.03
2023-12-14T01:23:21.549Z,100853.97
2023-12-14T01:24:25.400Z,100858.28
2023-12-14T01:25:26.983Z,100850.47
2023-12-14T01:26:28.928Z,100857.41
2023-12-14T01:27:30.508Z,100861.75
2023-12-14T01:28:32.305Z,100858.28
2023-12-14T01:29:33.930Z,100853.13
2023-12-14T01:30:35.539Z,100860.00
2023-12-14T01:31:37.240Z,100858.31
2023-12-14T01:32:39.054Z,100858.31
2023-12-14T01:33:40.849Z,100863.50
2023-12-14T01:34:42.690Z,100857.44
2023-12-14T01:35:44.533Z,100853.97
2023-12-14T01:36:46.246Z,100861.75
2023-12-14T01:37:48.490Z,100863.50
2023-12-14T01:38:53.363Z,100864.34
2023-12-14T01:39:55.060Z,100866.09
2023-12-14T01:40:57.610Z,100870.41
2023-12-14T01:41:59.547Z,100866.09
2023-12-14T01:43:09.265Z,100866.06
2023-12-14T01:44:10.887Z,100871.25
2023-12-14T01:45:16.282Z,100879.03
2023-12-14T01:46:18.294Z,100874.72
2023-12-14T01:47:20.015Z,100875.56
2023-12-14T01:48:22.695Z,100872.13
2023-12-14T01:49:24.585Z,100881.63
2023-12-14T01:50:26.617Z,100872.97
2023-12-14T01:51:28.869Z,100879.03
2023-12-14T01:52:30.534Z,100879.91
2023-12-14T01:53:32.284Z,100884.22
2023-12-14T01:54:34.662Z,100885.97
2023-12-14T01:55:39.837Z,100885.97
2023-12-14T01:56:41.955Z,100881.63
2023-12-14T01:57:47.927Z,100891.16
2023-12-14T01:58:49.827Z,100883.34
2023-12-14T01:59:54.134Z,100877.31
2023-12-14T02:01:14.690Z,100888.53
2023-12-14T02:02:16.667Z,100890.25
2023-12-14T02:03:21.322Z,100882.47
2023-12-14T02:04:25.953Z,100887.66
2023-12-14T02:05:28.009Z,100882.47
2023-12-14T02:06:29.986Z,100885.03
2023-12-14T02:07:31.603Z,100883.34
2023-12-14T02:08:33.347Z,100879.00
2023-12-14T02:09:35.042Z,100873.81
2023-12-14T02:10:36.726Z,100889.41
2023-12-14T02:11:38.661Z,100895.47
2023-12-14T02:12:40.326Z,100895.47
2023-12-14T02:13:42.059Z,100889.41
2023-12-14T02:14:43.893Z,100901.53
2023-12-14T02:15:45.525Z,100903.25
2023-12-14T02:16:49.914Z,100901.53
2023-12-14T02:17:51.775Z,100898.91
2023-12-14T02:18:53.804Z,100911.00
2023-12-14T02:19:55.980Z,100914.50
2023-12-14T02:20:57.980Z,100914.50
2023-12-14T02:21:59.783Z,100912.75
2023-12-14T02:23:02.953Z,100914.47
2023-12-14T02:24:05.161Z,100917.94
2023-12-14T02:25:07.542Z,100911.88
2023-12-14T02:26:09.495Z,100907.56
2023-12-14T02:27:11.269Z,100912.75
2023-12-14T02:28:13.020Z,100909.28
2023-12-14T02:29:16.050Z,100922.28
2023-12-14T02:30:19.490Z,100911.00
2023-12-14T02:31:21.775Z,100911.03
2023-12-14T02:32:26.606Z,100915.34
2023-12-14T02:33:28.626Z,100909.31
2023-12-14T02:34:30.274Z,100915.34
2023-12-14T02:35:31.903Z,100915.34
2023-12-14T02:36:35.714Z,100913.59
2023-12-14T02:37:47.219Z,100917.09
2023-12-14T02:38:49.072Z,100921.38
2023-12-14T02:39:50.899Z,100918.78
2023-12-14T02:40:54.091Z,100920.50
2023-12-14T02:41:56.097Z,100919.66
2023-12-14T02:42:58.810Z,100921.38
2023-12-14T02:44:00.438Z,100917.91
2023-12-14T02:45:03.281Z,100925.72
2023-12-14T02:46:05.243Z,100929.16
2023-12-14T02:47:06.961Z,100933.50
2023-12-14T02:48:10.362Z,100936.94
2023-12-14T02:49:13.913Z,100940.41
2023-12-14T02:50:15.823Z,100936.09
2023-12-14T02:51:18.066Z,100937.84
2023-12-14T02:52:19.927Z,100944.75
2023-12-14T02:53:21.722Z,100943.03
2023-12-14T02:54:23.681Z,100938.69
2023-12-14T02:55:25.449Z,100939.59
2023-12-14T02:56:27.076Z,100936.09
2023-12-14T02:57:28.697Z,100937.84
2023-12-14T02:58:30.410Z,100942.13
2023-12-14T02:59:32.062Z,100944.72
2023-12-14T03:00:36.476Z,100948.22
2023-12-14T03:01:38.133Z,100950.81
2023-12-14T03:02:42.365Z,100949.91
2023-12-14T03:03:44.154Z,100957.69
2023-12-14T03:04:46.081Z,100954.25
2023-12-14T03:05:50.489Z,100958.59
2023-12-14T03:06:52.901Z,100956.88
2023-12-14T03:07:54.656Z,100960.34
2023-12-14T03:08:56.388Z,100960.34
2023-12-14T03:09:58.503Z,100962.06
2023-12-14T03:11:01.365Z,100962.97
2023-12-14T03:12:03.450Z,100966.41
2023-12-14T03:13:08.025Z,100969.00
2023-12-14T03:14:12.159Z,100971.59
2023-12-14T03:15:13.824Z,100980.22
2023-12-14T03:16:15.529Z,100975.09
2023-12-14T03:17:17.737Z,100974.19
2023-12-14T03:18:19.744Z,100981.97
2023-12-14T03:19:21.646Z,100983.72
2023-12-14T03:20:24.057Z,100982.81
2023-12-14T03:21:25.713Z,100986.31
2023-12-14T03:22:30.330Z,100982.88
2023-12-14T03:23:34.456Z,100988.91
2023-12-14T03:24:39.582Z,100987.19
2023-12-14T03:25:41.477Z,100988.91
2023-12-14T03:26:43.733Z,100989.78
2023-12-14T03:27:48.069Z,100979.38
2023-12-14T03:28:49.929Z,100992.34
2023-12-14T03:29:51.763Z,100993.25
2023-12-14T03:30:55.881Z,100987.16
2023-12-14T03:31:58.472Z,100990.66
2023-12-14T03:33:02.557Z,100997.53
2023-12-14T03:34:04.417Z,100998.41
2023-12-14T03:35:06.678Z,101000.16
2023-12-14T03:36:08.503Z,101008.81
2023-12-14T03:37:10.141Z,101001.03
2023-12-14T03:38:12.925Z,101004.47
2023-12-14T03:39:17.170Z,101008.75
2023-12-14T03:40:18.773Z,101003.56
2023-12-14T03:41:20.460Z,101007.06
2023-12-14T03:42:22.631Z,101000.97
2023-12-14T03:43:24.374Z,101013.09
2023-12-14T03:44:26.802Z,101004.41
2023-12-14T03:45:28.556Z,101011.34
2023-12-14T03:46:30.452Z,101007.88
2023-12-14T03:47:32.066Z,101008.75
2023-12-14T03:48:34.648Z,101016.53
2023-12-14T03:49:39.744Z,101007.00
2023-12-14T03:50:41.762Z,101007.84
2023-12-14T03:51:44.926Z,101010.41
2023-12-14T03:52:46.726Z,101016.50
2023-12-14T03:53:48.544Z,101017.34
2023-12-14T03:54:50.179Z,101022.53
2023-12-14T03:55:51.828Z,101016.50
2023-12-14T03:56:53.618Z,101024.28
2023-12-14T03:57:55.257Z,101024.28
2023-12-14T03:58:58.413Z,101029.47
2023-12-14T04:00:00.184Z,101028.59
2023-12-14T04:01:03.556Z,101030.31
2023-12-14T04:02:05.686Z,101027.72
2023-12-14T04:03:07.695Z,101026.88
2023-12-14T04:04:09.439Z,101025.13
2023-12-14T04:05:11.636Z,101024.28
2023-12-14T04:06:14.069Z,101026.00
2023-12-14T04:07:15.703Z,101030.34
2023-12-14T04:08:17.731Z,101034.66
2023-12-14T04:09:26.807Z,101025.13
2023-12-14T04:10:28.469Z,101031.16
2023-12-14T04:11:32.669Z,101025.97
2023-12-14T04:12:34.771Z,101038.91
2023-12-14T04:13:36.765Z,101032.84
2023-12-14T04:14:38.640Z,101036.31
2023-12-14T04:15:40.580Z,101037.16
2023-12-14T04:16:42.706Z,101043.22
2023-12-14T04:17:44.651Z,101041.50
2023-12-14T04:18:46.548Z,101044.09
2023-12-14T04:19:48.479Z,101046.69
2023-12-14T04:20:53.451Z,101039.75
2023-12-14T04:21:55.101Z,101043.19
2023-12-14T04:22:56.733Z,101045.78
2023-12-14T04:23:58.730Z,101043.16
2023-12-14T04:25:00.708Z,101038.84
2023-12-14T04:26:02.812Z,101037.13
2023-12-14T04:27:04.902Z,101042.31
2023-12-14T04:28:06.535Z,101050.97
2023-12-14T04:29:08.640Z,101047.53
2023-12-14T04:30:12.122Z,101044.94
2023-12-14T04:31:13.818Z,101048.38
2023-12-14T04:32:15.696Z,101052.72
2023-12-14T04:33:17.782Z,101057.00
2023-12-14T04:34:20.163Z,101050.97
2023-12-14T04:35:23.448Z,101053.56
2023-12-14T04:36:25.103Z,101053.56
2023-12-14T04:37:29.037Z,101057.00
2023-12-14T04:38:30.677Z,101063.88
2023-12-14T04:39:32.725Z,101056.06
2023-12-14T04:40:34.639Z,101059.53
2023-12-14T04:41:36.579Z,101055.19
2023-12-14T04:42:38.641Z,101057.78
2023-12-14T04:43:43.747Z,101056.94
2023-12-14T04:44:45.454Z,101056.88
2023-12-14T04:45:47.084Z,101057.78
2023-12-14T04:46:49.607Z,101062.06
2023-12-14T04:47:51.434Z,101056.00
2023-12-14T04:48:53.121Z,101063.78
2023-12-14T04:49:54.909Z,101062.03
2023-12-14T04:50:56.718Z,101069.81
2023-12-14T04:51:58.832Z,101073.25
2023-12-14T04:53:00.952Z,101074.97
2023-12-14T04:54:05.199Z,101070.63
2023-12-14T04:55:07.713Z,101085.31
2023-12-14T04:56:13.146Z,101084.44
2023-12-14T04:57:15.342Z,101080.13
2023-12-14T04:58:17.757Z,101086.16
2023-12-14T04:59:19.763Z,101088.75
2023-12-14T05:00:21.649Z,101082.72
2023-12-14T05:01:23.701Z,101093.94
2023-12-14T05:02:25.451Z,101092.22
2023-12-14T05:03:27.074Z,101090.50
2023-12-14T05:04:29.560Z,101089.63
2023-12-14T05:05:31.314Z,101098.28
2023-12-14T05:06:36.441Z,101100.00
2023-12-14T05:07:38.977Z,101097.41
2023-12-14T05:08:40.703Z,101098.31
2023-12-14T05:09:42.692Z,101096.56
2023-12-14T05:10:44.651Z,101106.94
2023-12-14T05:11:46.501Z,101100.88
2023-12-14T05:12:48.124Z,101096.56
2023-12-14T05:13:49.975Z,101093.09
2023-12-14T05:14:51.716Z,101099.09
2023-12-14T05:15:56.743Z,101106.84
2023-12-14T05:16:58.649Z,101100.78
2023-12-14T05:18:00.682Z,101103.38
2023-12-14T05:19:02.907Z,101105.09
2023-12-14T05:20:09.884Z,101101.63
2023-12-14T05:21:18.452Z,101106.81
2023-12-14T05:22:20.197Z,101105.94
2023-12-14T05:23:21.964Z,101108.53
2023-12-14T05:24:23.678Z,101112.88
2023-12-14T05:25:25.344Z,101110.28
2023-12-14T05:26:26.962Z,101108.56
2023-12-14T05:27:28.797Z,101112.91
2023-12-14T05:28:30.449Z,101111.16
2023-12-14T05:29:34.620Z,101113.75
2023-12-14T05:30:36.517Z,101108.53
2023-12-14T05:31:39.120Z,101115.50
2023-12-14T05:32:41.718Z,101116.34
2023-12-14T05:33:43.732Z,101115.50
2023-12-14T05:34:45.447Z,101115.47
2023-12-14T05:35:49.414Z,101120.66
2023-12-14T05:36:51.078Z,101123.22
2023-12-14T05:37:53.035Z,101124.91
2023-12-14T05:38:54.891Z,101130.94
2023-12-14T05:39:56.665Z,101133.50
2023-12-14T05:40:58.267Z,101129.22
2023-12-14T05:42:00.127Z,101130.91
2023-12-14T05:43:01.711Z,101126.56
2023-12-14T05:44:03.369Z,101134.34
2023-12-14T05:45:08.533Z,101141.25
2023-12-14T05:46:21.828Z,101133.44
2023-12-14T05:47:26.758Z,101141.22
2023-12-14T05:48:29.935Z,101137.75
2023-12-14T05:49:31.882Z,101136.03
2023-12-14T05:50:33.625Z,101149.84
2023-12-14T05:51:36.747Z,101143.84
2023-12-14T05:52:41.719Z,101151.63
2023-12-14T05:53:43.601Z,101147.28
2023-12-14T05:54:45.204Z,101153.38
2023-12-14T05:55:47.536Z,101152.50
2023-12-14T05:56:49.191Z,101159.44
2023-12-14T05:57:51.060Z,101157.72
2023-12-14T05:58:53.137Z,101160.34
2023-12-14T05:59:55.038Z,101160.34
2023-12-14T06:00:57.955Z,101164.63
2023-12-14T06:02:00.649Z,101164.59
2023-12-14T06:03:03.548Z,101174.97
2023-12-14T06:04:05.309Z,101168.03
2023-12-14T06:05:11.358Z,101172.38
2023-12-14T06:06:19.269Z,101168.03
2023-12-14T06:07:23.270Z,101171.53
2023-12-14T06:08:25.040Z,101173.25
2023-12-14T06:09:35.946Z,101179.31
2023-12-14T06:10:38.318Z,101182.78
2023-12-14T06:11:40.029Z,101177.59
2023-12-14T06:12:42.627Z,101184.53
2023-12-14T06:13:44.597Z,101176.75
2023-12-14T06:14:46.680Z,101176.72
2023-12-14T06:15:50.981Z,101178.38
2023-12-14T06:16:53.729Z,101179.28
2023-12-14T06:17:55.471Z,101174.94
2023-12-14T06:18:57.353Z,101179.28
2023-12-14T06:19:59.171Z,101177.56
2023-12-14T06:21:01.501Z,101187.09
2023-12-14T06:22:03.181Z,101183.59
2023-12-14T06:23:05.312Z,101197.44
2023-12-14T06:24:07.010Z,101190.50
2023-12-14T06:25:09.878Z,101188.75
2023-12-14T06:26:11.881Z,101193.94
2023-12-14T06:27:13.598Z,101190.47
2023-12-14T06:28:15.314Z,101184.41
2023-12-14T06:29:19.453Z,101190.50
2023-12-14T06:30:21.131Z,101190.50
2023-12-14T06:31:23.060Z,101188.75
2023-12-14T06:32:24.818Z,101186.13
2023-12-14T06:33:26.631Z,101195.66
2023-12-14T06:34:28.514Z,101196.50
2023-12-14T06:35:30.107Z,101194.75
2023-12-14T06:36:32.730Z,101196.53
2023-12-14T06:37:34.633Z,101196.53
2023-12-14T06:38:40.068Z,101200.81
2023-12-14T06:39:43.500Z,101199.94
2023-12-14T06:40:45.254Z,101203.41
2023-12-14T06:41:46.856Z,101212.06
2023-12-14T06:42:50.958Z,101212.06
2023-12-14T06:43:54.025Z,101213.78
2023-12-14T06:44:55.724Z,101217.25
2023-12-14T06:45:57.864Z,101215.50
2023-12-14T06:46:59.803Z,101225.84
2023-12-14T06:48:01.837Z,101224.13
2023-12-14T06:49:04.073Z,101224.13
2023-12-14T06:50:06.672Z,101218.94
2023-12-14T06:51:09.184Z,101228.44
2023-12-14T06:52:11.783Z,101218.97
2023-12-14T06:53:15.751Z,101221.56
2023-12-14T06:54:18.398Z,101217.25
2023-12-14T06:55:20.554Z,101221.59
2023-12-14T06:56:24.917Z,101223.28
2023-12-14T06:57:27.810Z,101225.03
2023-12-14T06:58:30.431Z,101226.75
2023-12-14T06:59:32.141Z,101228.47
2023-12-14T07:00:33.791Z,101226.72
2023-12-14T07:01:35.922Z,101230.97
2023-12-14T07:02:38.253Z,101242.22
2023-12-14T07:03:45.444Z,101238.78
2023-12-14T07:04:47.422Z,101231.91
2023-12-14T07:05:49.347Z,101241.44
2023-12-14T07:06:53.496Z,101241.44
2023-12-14T07:07:55.309Z,101237.13
2023-12-14T07:08:57.048Z,101241.44
2023-12-14T07:09:58.798Z,101244.03
2023-12-14T07:11:00.525Z,101243.19
2023-12-14T07:12:03.863Z,101245.75
2023-12-14T07:13:05.789Z,101244.00
2023-12-14T07:14:07.967Z,101251.75
2023-12-14T07:15:10.358Z,101254.34
2023-12-14T07:16:15.113Z,101256.94
2023-12-14T07:17:17.051Z,101252.66
2023-12-14T07:18:19.052Z,101257.84
2023-12-14T07:19:20.727Z,101257.84
2023-12-14T07:20:23.223Z,101262.16
2023-12-14T07:21:25.150Z,101263.91
2023-12-14T07:22:26.939Z,101261.28
2023-12-14T07:23:28.877Z,101270.81
2023-12-14T07:24:37.823Z,101277.69
2023-12-14T07:25:46.396Z,101282.03
2023-12-14T07:26:48.045Z,101282.03
2023-12-14T07:27:50.387Z,101288.09
2023-12-14T07:28:55.479Z,101288.09
2023-12-14T07:29:57.504Z,101292.41
2023-12-14T07:30:59.850Z,101296.75
2023-12-14T07:32:04.030Z,101291.56
2023-12-14T07:33:08.487Z,101299.34
2023-12-14T07:34:10.858Z,101299.31
2023-12-14T07:35:12.752Z,101301.91
2023-12-14T07:36:14.805Z,101296.72
2023-12-14T07:37:16.571Z,101305.38
2023-12-14T07:38:18.426Z,101308.81
2023-12-14T07:39:20.222Z,101309.69
2023-12-14T07:40:21.860Z,101318.31
2023-12-14T07:41:30.592Z,101308.75
2023-12-14T07:42:32.949Z,101309.59
2023-12-14T07:43:35.193Z,101320.00
2023-12-14T07:44:37.009Z,101320.00
2023-12-14T07:45:38.847Z,101320.88
2023-12-14T07:46:42.613Z,101320.88
2023-12-14T07:47:46.494Z,101319.16
2023-12-14T07:48:48.754Z,101317.44
2023-12-14T07:49:50.585Z,101321.75
2023-12-14T07:50:52.943Z,101321.75
2023-12-14T07:51:54.845Z,101329.53
2023-12-14T07:52:56.833Z,101326.09
2023-12-14T07:53:58.516Z,101329.53
2023-12-14T07:55:00.398Z,101325.22
2023-12-14T07:56:03.845Z,101327.84
2023-12-14T07:57:05.658Z,101326.97
2023-12-14T07:58:09.179Z,101338.22
2023-12-14T07:59:11.504Z,101331.28
2023-12-14T08:00:13.742Z,101332.13
2023-12-14T08:01:18.393Z,101333.03
2023-12-14T08:02:20.436Z,101335.63
2023-12-14T08:03:22.409Z,101333.03
2023-12-14T08:04:24.725Z,101339.91
2023-12-14T08:05:26.562Z,101340.78
2023-12-14T08:06:28.770Z,101336.44
2023-12-14T08:07:30.726Z,101342.50
2023-12-14T08:08:32.932Z,101341.66
2023-12-14T08:09:34.939Z,101347.72
2023-12-14T08:10:37.005Z,101352.06
2023-12-14T08:11:38.723Z,101347.72
2023-12-14T08:12:43.619Z,101346.03
2023-12-14T08:13:45.397Z,101350.41
2023-12-14T08:14:47.049Z,101356.44
2023-12-14T08:15:48.945Z,101354.69
2023-12-14T08:16:50.981Z,101360.81
2023-12-14T08:17:53.045Z,101356.50
2023-12-14T08:18:55.194Z,101363.44
2023-12-14T08:19:57.275Z,101360.81
2023-12-14T08:20:59.098Z,101364.28
2023-12-14T08:22:01.448Z,101360.81
2023-12-14T08:23:03.187Z,101375.53
2023-12-14T08:24:08.340Z,101375.53
2023-12-14T08:25:11.304Z,101375.53
2023-12-14T08:26:14.203Z,101376.41
2023-12-14T08:27:15.907Z,101367.75
2023-12-14T08:28:17.725Z,101387.59
2023-12-14T08:29:19.691Z,101375.53
2023-12-14T08:30:22.232Z,101379.00
2023-12-14T08:31:26.011Z,101382.44
2023-12-14T08:32:27.775Z,101385.91
2023-12-14T08:33:30.216Z,101382.44
2023-12-14T08:34:31.906Z,101389.31
2023-12-14T08:35:33.535Z,101391.91
2023-12-14T08:36:35.791Z,101390.19
2023-12-14T08:37:38.721Z,101389.31
2023-12-14T08:38:40.458Z,101392.78
2023-12-14T08:39:44.557Z,101395.38
2023-12-14T08:40:46.428Z,101391.06
2023-12-14T08:41:49.666Z,101395.38
2023-12-14T08:42:54.696Z,101397.97
2023-12-14T08:43:59.254Z,101397.13
2023-12-14T08:45:00.941Z,101400.56
2023-12-14T08:46:03.161Z,101397.13
2023-12-14T08:47:05.768Z,101392.75
2023-12-14T08:48:07.624Z,101398.75
2023-12-14T08:49:09.673Z,101399.66
2023-12-14T08:50:11.455Z,101406.59
2023-12-14T08:51:15.363Z,101403.13
2023-12-14T08:52:18.428Z,101407.47
2023-12-14T08:53:20.529Z,101404.88
2023-12-14T08:54:22.381Z,101410.91
2023-12-14T08:55:24.236Z,101416.13
2023-12-14T08:56:25.920Z,101412.69
2023-12-14T08:57:27.801Z,101416.13
2023-12-14T08:58:30.575Z,101421.28
2023-12-14T08:59:32.803Z,101422.16
2023-12-14T09:00:35.431Z,101425.63
2023-12-14T09:01:39.853Z,101420.41
2023-12-14T09:02:41.997Z,101429.06
2023-12-14T09:03:44.096Z,101424.75
2023-12-14T09:04:45.912Z,101433.41
2023-12-14T09:05:47.793Z,101431.66
2023-12-14T09:06:50.929Z,101436.88
2023-12-14T09:07:57.813Z,101438.63
2023-12-14T09:09:02.015Z,101435.19
2023-12-14T09:10:03.893Z,101450.72
2023-12-14T09:11:08.431Z,101443.78
2023-12-14T09:12:10.939Z,101441.19
2023-12-14T09:13:12.954Z,101442.06
2023-12-14T09:14:15.093Z,101444.66
2023-12-14T09:15:19.175Z,101443.78
2023-12-14T09:16:20.921Z,101442.03
2023-12-14T09:17:26.018Z,101443.78
2023-12-14T09:18:27.946Z,101449.81
2023-12-14T09:19:33.068Z,101447.25
2023-12-14T09:20:36.631Z,101449.84
2023-12-14T09:21:44.559Z,101455.94
2023-12-14T09:22:48.601Z,101449.00
2023-12-14T09:23:50.376Z,101455.09
2023-12-14T09:24:52.006Z,101455.09
2023-12-14T09:25:53.769Z,101460.28
2023-12-14T09:26:55.465Z,101458.56
2023-12-14T09:27:57.162Z,101465.50
2023-12-14T09:28:58.761Z,101468.09
2023-12-14T09:30:00.509Z,101462.09
2023-12-14T09:31:03.039Z,101468.09
2023-12-14T09:32:06.540Z,101466.38
2023-12-14T09:33:09.996Z,101468.16
2023-12-14T09:34:12.588Z,101468.16
2023-12-14T09:35:15.350Z,101465.59
2023-12-14T09:36:19.192Z,101468.19
2023-12-14T09:37:20.853Z,101461.34
2023-12-14T09:38:22.727Z,101467.38
2023-12-14T09:39:24.696Z,101470.03
2023-12-14T09:40:26.498Z,101467.44
2023-12-14T09:41:28.092Z,101474.38
2023-12-14T09:42:38.576Z,101477.88
2023-12-14T09:43:40.276Z,101472.72
2023-12-14T09:44:43.500Z,101470.13
2023-12-14T09:45:49.543Z,101477.03
2023-12-14T09:46:51.717Z,101476.19
2023-12-14T09:47:54.751Z,101475.34
2023-12-14T09:48:58.080Z,101477.09
2023-12-14T09:50:01.077Z,101470.19
2023-12-14T09:51:03.401Z,101473.63
2023-12-14T09:52:05.223Z,101472.75
2023-12-14T09:53:07.103Z,101469.31
2023-12-14T09:54:08.760Z,101471.91
2023-12-14T09:55:10.448Z,101470.19
2023-12-14T09:56:12.096Z,101469.34
2023-12-14T09:57:13.799Z,101480.59
2023-12-14T09:58:15.486Z,101482.34
2023-12-14T09:59:19.970Z,101482.34
2023-12-14T10:00:35.578Z,101483.22
2023-12-14T10:01:37.399Z,101484.97
2023-12-14T10:02:39.422Z,101482.41
2023-12-14T10:03:41.023Z,101485.84
2023-12-14T10:04:45.372Z,101484.16
2023-12-14T10:05:48.208Z,101485.00
2023-12-14T10:06:50.065Z,101491.97
2023-12-14T10:07:53.747Z,101485.84
2023-12-14T10:08:57.692Z,101487.59
2023-12-14T10:10:16.140Z,101493.72
2023-12-14T10:11:17.913Z,101491.13
2023-12-14T10:12:23.800Z,101492.84
2023-12-14T10:13:38.741Z,101491.13
2023-12-14T10:14:40.512Z,101492.88
2023-12-14T10:15:46.347Z,101497.19
2023-12-14T10:16:50.302Z,101496.34
2023-12-14T10:17:56.557Z,101494.63
2023-12-14T10:18:59.904Z,101503.31
2023-12-14T10:20:06.192Z,101504.19
2023-12-14T10:21:08.860Z,101503.34
2023-12-14T10:22:10.505Z,101502.50
2023-12-14T10:23:12.271Z,101506.81
2023-12-14T10:24:18.533Z,101507.72
2023-12-14T10:25:22.824Z,101513.75
2023-12-14T10:26:26.840Z,101504.22
2023-12-14T10:27:31.939Z,101510.31
2023-12-14T10:28:33.844Z,101505.97
2023-12-14T10:29:37.722Z,101514.59
2023-12-14T10:30:40.682Z,101512.00
2023-12-14T10:31:44.953Z,101511.16
2023-12-14T10:32:50.422Z,101512.91
2023-12-14T10:33:52.351Z,101516.38
2023-12-14T10:34:55.324Z,101517.22
2023-12-14T10:35:57.572Z,101524.13
2023-12-14T10:36:59.618Z,101512.88
2023-12-14T10:38:06.315Z,101513.72
2023-12-14T10:39:16.306Z,101522.34
2023-12-14T10:40:18.537Z,101524.13
2023-12-14T10:41:21.876Z,101523.28
2023-12-14T10:42:26.477Z,101523.31
2023-12-14T10:43:47.592Z,101525.91
2023-12-14T10:46:00.286Z,101538.03
2023-12-14T10:47:05.191Z,101534.56
2023-12-14T10:48:07.831Z,101544.09
2023-12-14T10:49:11.434Z,101546.69
2023-12-14T10:50:13.822Z,101545.84
2023-12-14T10:51:16.687Z,101545.03
2023-12-14T10:52:20.648Z,101553.69
2023-12-14T10:53:28.020Z,101550.25
2023-12-14T10:54:37.887Z,101551.13
2023-12-14T10:55:43.841Z,101552.03
2023-12-14T10:56:45.729Z,101556.38
2023-12-14T10:57:48.592Z,101558.09
2023-12-14T10:58:59.317Z,101565.03
2023-12-14T11:00:03.193Z,101566.78
2023-12-14T11:01:06.680Z,101561.59
2023-12-14T11:02:11.067Z,101561.63
2023-12-14T11:03:14.876Z,101561.66
2023-12-14T11:04:18.031Z,101559.06
2023-12-14T11:05:27.785Z,101569.47
2023-12-14T11:06:34.605Z,101567.72
2023-12-14T11:07:55.868Z,101567.75
2023-12-14T11:09:11.411Z,101574.66
2023-12-14T11:10:16.525Z,101570.28
2023-12-14T11:11:21.534Z,101575.47
2023-12-14T11:12:23.349Z,101577.22
2023-12-14T11:13:25.181Z,101574.63
2023-12-14T11:14:28.007Z,101574.63
2023-12-14T11:15:35.589Z,101579.84
2023-12-14T11:16:50.207Z,101576.34
2023-12-14T11:18:16.162Z,101585.91
2023-12-14T11:19:24.253Z,101582.47
2023-12-14T11:20:26.302Z,101581.59
2023-12-14T11:21:28.006Z,101586.81
2023-12-14T11:22:30.742Z,101594.59
2023-12-14T11:23:37.850Z,101591.19
2023-12-14T11:24:46.453Z,101594.66
2023-12-14T11:25:56.997Z,101597.28
2023-12-14T11:27:05.925Z,101599.03
2023-12-14T11:28:09.081Z,101599.03
2023-12-14T11:29:10.931Z,101603.34
2023-12-14T11:30:13.330Z,101605.06
2023-12-14T11:31:15.237Z,101605.09
2023-12-14T11:32:18.385Z,101605.94
2023-12-14T11:33:20.110Z,101605.09
2023-12-14T11:34:25.557Z,101605.09
2023-12-14T11:35:27.542Z,101599.06
2023-12-14T11:36:30.242Z,101598.22
2023-12-14T11:38:36.027Z,101593.88
2023-12-14T11:39:38.537Z,101605.19
2023-12-14T11:40:41.213Z,101601.66
2023-12-14T11:41:42.873Z,101599.91
2023-12-14T11:42:47.723Z,101604.28
2023-12-14T11:43:49.679Z,101607.72
2023-12-14T11:44:51.322Z,101606.88
2023-12-14T11:45:56.212Z,101605.22
2023-12-14T11:46:58.089Z,101612.16
2023-12-14T11:48:00.071Z,101623.41
2023-12-14T11:49:04.637Z,101618.28
2023-12-14T11:50:07.567Z,101615.69
2023-12-14T11:51:09.643Z,101625.22
2023-12-14T11:52:11.324Z,101623.47
2023-12-14T11:53:13.541Z,101617.44
2023-12-14T11:54:16.321Z,101618.31
2023-12-14T11:55:18.134Z,101622.66
2023-12-14T11:56:21.415Z,101620.91
2023-12-14T11:57:24.274Z,101623.53
2023-12-14T11:58:25.986Z,101622.66
2023-12-14T11:59:30.822Z,101628.72
2023-12-14T12:00:33.807Z,101626.13